createdAt,value
2022-09-24T00:00:54.235Z,71.20
2022-09-24T00:06:14.987Z,71.00
2022-09-24T00:11:30.414Z,70.90
2022-09-24T00:16:35.056Z,70.90
2022-09-24T00:21:45.477Z,71.10
2022-09-24T00:26:52.625Z,70.80
2022-09-24T00:31:58.075Z,70.90
2022-09-24T00:37:02.281Z,71.00
2022-09-24T00:42:08.075Z,71.10
2022-09-24T00:47:12.857Z,71.20
2022-09-24T00:52:18.646Z,71.10
2022-09-24T00:57:24.518Z,71.20
2022-09-24T01:02:28.348Z,71.10
2022-09-24T01:07:32.196Z,71.40
2022-09-24T01:12:41.140Z,71.20
2022-09-24T01:17:57.044Z,71.30
2022-09-24T01:23:48.425Z,71.20
2022-09-24T01:29:04.364Z,71.40
2022-09-24T01:34:09.944Z,71.20
2022-09-24T01:39:17.340Z,71.10
2022-09-24T01:44:21.090Z,71.20
2022-09-24T01:49:25.102Z,71.40
2022-09-24T01:54:35.274Z,71.10
2022-09-24T01:59:48.210Z,71.10
2022-09-24T02:04:58.889Z,71.00
2022-09-24T02:10:02.615Z,71.10
2022-09-24T02:15:15.490Z,71.00
2022-09-24T02:20:30.842Z,71.10
2022-09-24T02:25:41.198Z,71.00
2022-09-24T02:30:51.796Z,71.00
2022-09-24T02:35:55.452Z,71.10
2022-09-24T02:40:59.585Z,70.30
2022-09-24T02:46:03.460Z,70.20
2022-09-24T02:51:07.323Z,70.10
2022-09-24T02:56:11.551Z,70.00
2022-09-24T03:01:15.608Z,70.30
2022-09-24T03:06:19.717Z,69.80
2022-09-24T03:11:24.157Z,69.70
2022-09-24T03:16:28.369Z,69.60
2022-09-24T03:21:32.127Z,69.60
2022-09-24T03:26:36.052Z,69.40
2022-09-24T03:31:39.838Z,69.30
2022-09-24T03:36:43.708Z,69.60
2022-09-24T03:41:47.333Z,69.20
2022-09-24T03:46:51.027Z,69.10
2022-09-24T03:51:54.780Z,69.00
2022-09-24T03:56:58.411Z,68.90
2022-09-24T04:02:02.220Z,69.20
2022-09-24T04:07:06.674Z,68.70
2022-09-24T04:12:10.297Z,68.60
2022-09-24T04:17:15.250Z,68.60
2022-09-24T04:22:19.530Z,68.40
2022-09-24T04:27:23.418Z,68.50
2022-09-24T04:32:27.043Z,68.50
2022-09-24T04:37:30.768Z,68.40
2022-09-24T04:42:34.493Z,68.30
2022-09-24T04:47:40.851Z,68.60
2022-09-24T04:52:44.610Z,68.80
2022-09-24T04:57:51.544Z,68.20
2022-09-24T05:03:00.186Z,68.20
2022-09-24T05:08:05.197Z,68.30
2022-09-24T05:13:09.124Z,68.10
2022-09-24T05:18:13.055Z,68.00
2022-09-24T05:23:16.782Z,68.00
2022-09-24T05:28:21.737Z,67.90
2022-09-24T05:33:25.975Z,67.90
2022-09-24T05:38:33.515Z,67.90
2022-09-24T05:43:41.510Z,68.00
2022-09-24T05:48:45.230Z,68.00
2022-09-24T05:53:51.931Z,68.20
2022-09-24T05:58:56.060Z,67.80
2022-09-24T06:04:02.483Z,67.80
2022-09-24T06:09:10.512Z,67.70
2022-09-24T06:14:15.541Z,67.50
2022-09-24T06:19:19.358Z,68.00
2022-09-24T06:24:30.655Z,67.60
2022-09-24T06:29:35.915Z,67.90
2022-09-24T06:34:39.742Z,67.70
2022-09-24T06:39:45.615Z,67.50
2022-09-24T06:44:54.969Z,68.10
2022-09-24T06:50:01.565Z,67.70
2022-09-24T06:55:10.614Z,67.50
2022-09-24T07:00:36.747Z,68.00
2022-09-24T07:05:52.079Z,67.50
2022-09-24T07:10:56.069Z,67.80
2022-09-24T07:16:04.803Z,67.40
2022-09-24T07:21:18.560Z,67.40
2022-09-24T07:26:30.004Z,67.30
2022-09-24T07:31:43.687Z,67.30
2022-09-24T07:36:58.428Z,67.10
2022-09-24T07:42:06.621Z,67.50
2022-09-24T07:47:14.757Z,67.50
2022-09-24T07:52:19.492Z,67.20
2022-09-24T07:57:27.598Z,67.40
2022-09-24T08:02:31.652Z,67.00
2022-09-24T08:07:37.441Z,67.20
2022-09-24T08:12:42.634Z,67.10
2022-09-24T08:17:46.748Z,66.40
2022-09-24T08:22:55.019Z,66.40
2022-09-24T08:28:07.675Z,66.60
2022-09-24T08:33:16.415Z,67.00
2022-09-24T08:38:23.048Z,67.50
2022-09-24T08:43:34.902Z,67.40
2022-09-24T08:48:43.255Z,67.50
2022-09-24T08:54:18.026Z,68.30
2022-09-24T08:59:34.700Z,67.60
2022-09-24T09:05:03.503Z,68.00
2022-09-24T09:10:29.537Z,67.80
2022-09-24T09:15:50.799Z,67.60
2022-09-24T09:21:03.693Z,67.40
2022-09-24T09:26:11.673Z,66.90
2022-09-24T09:31:51.285Z,67.60
2022-09-24T09:37:34.490Z,66.90
2022-09-24T09:42:54.844Z,67.50
2022-09-24T09:48:03.877Z,67.50
2022-09-24T09:53:28.658Z,68.20
2022-09-24T09:58:40.676Z,67.90
2022-09-24T10:03:47.349Z,68.60
2022-09-24T10:08:52.102Z,68.50
2022-09-24T10:14:13.923Z,68.60
2022-09-24T10:19:26.364Z,68.10
2022-09-24T10:35:00.766Z,67.70
2022-09-24T10:40:22.912Z,68.20
2022-09-24T10:45:43.903Z,68.90
2022-09-24T10:50:56.253Z,68.50
2022-09-24T10:56:09.188Z,67.90
2022-09-24T11:01:21.460Z,68.20
2022-09-24T11:06:44.269Z,68.00
2022-09-24T11:11:57.167Z,67.20
2022-09-24T11:17:19.285Z,67.60
2022-09-24T11:22:42.212Z,67.80
2022-09-24T11:28:03.128Z,67.20
2022-09-24T11:33:23.076Z,67.30
2022-09-24T11:39:11.675Z,67.10
2022-09-24T11:44:20.132Z,66.90
2022-09-24T11:50:16.062Z,66.70
2022-09-24T11:55:34.664Z,64.10
2022-09-24T12:00:49.058Z,63.90
2022-09-24T12:06:05.985Z,63.70
2022-09-24T12:11:34.578Z,64.60
2022-09-24T12:16:41.365Z,62.70
2022-09-24T12:21:48.268Z,60.80
2022-09-24T12:27:01.655Z,60.10
2022-09-24T12:32:36.558Z,59.80
2022-09-24T12:37:42.871Z,60.10
2022-09-24T12:43:01.961Z,59.30
2022-09-24T12:48:11.676Z,60.10
2022-09-24T12:53:25.635Z,60.60
2022-09-24T12:58:45.472Z,60.80
2022-09-24T13:04:14.225Z,61.30
2022-09-24T13:09:36.717Z,61.10
2022-09-24T13:14:44.292Z,61.30
2022-09-24T13:19:49.985Z,61.40
2022-09-24T13:25:08.529Z,61.40
2022-09-24T13:30:36.411Z,61.40
2022-09-24T13:35:46.160Z,61.70
2022-09-24T13:41:02.067Z,61.70
2022-09-24T13:46:14.184Z,61.50
2022-09-24T13:51:28.254Z,61.40
2022-09-24T13:56:34.571Z,61.50
2022-09-24T14:02:35.535Z,61.50
2022-09-24T14:08:12.662Z,61.70
2022-09-24T14:13:18.110Z,61.60
2022-09-24T14:18:26.054Z,61.80
2022-09-24T14:24:14.273Z,61.70
2022-09-24T14:29:40.752Z,61.80
2022-09-24T14:34:58.199Z,62.20
2022-09-24T14:40:41.512Z,61.80
2022-09-24T14:46:35.765Z,62.50
2022-09-24T14:51:58.322Z,62.50
2022-09-24T14:57:17.493Z,62.90
2022-09-24T15:02:40.371Z,62.80
2022-09-24T15:07:54.551Z,63.00
2022-09-24T15:13:00.816Z,63.20
2022-09-24T15:18:27.266Z,63.60
2022-09-24T15:23:41.439Z,63.80
2022-09-24T15:28:53.764Z,64.20
2022-09-24T15:34:28.195Z,64.00
2022-09-24T15:40:25.489Z,64.00
2022-09-24T15:45:36.866Z,64.20
2022-09-24T15:51:01.962Z,64.20
2022-09-24T15:56:16.447Z,64.40
2022-09-24T16:01:25.705Z,64.30
2022-09-24T16:06:43.554Z,64.50
2022-09-24T16:11:59.843Z,64.30
2022-09-24T16:17:04.147Z,64.10
2022-09-24T16:22:12.736Z,64.00
2022-09-24T16:27:19.198Z,63.70
2022-09-24T16:32:24.931Z,63.50
2022-09-24T16:37:29.066Z,63.30
2022-09-24T16:42:34.392Z,63.10
2022-09-24T16:47:38.160Z,63.20
2022-09-24T16:52:45.160Z,62.80
2022-09-24T16:57:48.988Z,63.10
2022-09-24T17:02:52.815Z,62.60
2022-09-24T17:07:56.581Z,63.20
2022-09-24T17:13:03.266Z,63.20
2022-09-24T17:18:12.716Z,62.80
2022-09-24T17:23:16.512Z,63.40
2022-09-24T17:28:21.776Z,63.60
2022-09-24T17:33:42.963Z,63.60
2022-09-24T17:38:49.519Z,63.70
2022-09-24T17:44:02.848Z,63.80
2022-09-24T17:49:22.352Z,64.00
2022-09-24T17:54:29.012Z,64.00
2022-09-24T17:59:33.174Z,64.00
2022-09-24T18:04:42.961Z,64.40
2022-09-24T18:09:47.049Z,64.30
2022-09-24T18:14:52.046Z,64.50
2022-09-24T18:19:55.827Z,64.80
2022-09-24T18:25:02.520Z,64.00
2022-09-24T18:30:13.154Z,64.10
2022-09-24T18:35:31.169Z,64.00
2022-09-24T18:40:38.709Z,64.40
2022-09-24T18:45:42.598Z,64.70
2022-09-24T18:50:46.437Z,64.80
2022-09-24T18:56:00.901Z,65.90
2022-09-24T19:01:08.240Z,67.50
2022-09-24T19:06:13.266Z,67.40
2022-09-24T19:11:18.626Z,68.40
2022-09-24T19:16:24.073Z,68.40
2022-09-24T19:21:28.729Z,68.50
2022-09-24T19:26:42.757Z,68.10
2022-09-24T19:31:52.250Z,68.00
2022-09-24T19:37:06.080Z,67.80
2022-09-24T19:42:11.468Z,67.30
2022-09-24T19:47:16.013Z,68.20
2022-09-24T19:52:37.528Z,67.70
2022-09-24T19:58:10.574Z,67.70
2022-09-24T20:03:46.601Z,67.70
2022-09-24T20:09:28.036Z,70.10
2022-09-24T20:14:36.048Z,68.90
2022-09-24T20:19:44.138Z,69.30
2022-09-24T20:24:48.981Z,68.60
2022-09-24T20:29:56.457Z,71.30
2022-09-24T20:35:15.961Z,69.80
2022-09-24T20:40:31.435Z,71.00
2022-09-24T20:45:41.595Z,71.80
2022-09-24T20:50:47.726Z,70.90
2022-09-24T20:55:54.280Z,70.40
2022-09-24T21:01:04.344Z,71.00
2022-09-24T21:06:12.396Z,71.40
2022-09-24T21:11:21.661Z,70.90
2022-09-24T21:16:29.057Z,71.20
2022-09-24T21:21:38.572Z,72.10
2022-09-24T21:26:48.700Z,73.30
2022-09-24T21:31:53.445Z,73.00
2022-09-24T21:36:57.775Z,72.80
2022-09-24T21:42:01.615Z,72.60
2022-09-24T21:47:05.859Z,72.60
2022-09-24T21:52:10.055Z,72.30
2022-09-24T21:57:15.048Z,72.50
2022-09-24T22:02:19.047Z,72.30
2022-09-24T22:07:24.129Z,72.00
2022-09-24T22:12:28.174Z,72.00
2022-09-24T22:17:32.303Z,71.70
2022-09-24T22:22:36.024Z,71.80
2022-09-24T22:27:39.685Z,71.60
2022-09-24T22:32:43.476Z,71.50
2022-09-24T22:37:47.578Z,71.60
2022-09-24T22:42:51.948Z,71.40
2022-09-24T22:47:57.208Z,71.30
2022-09-24T22:53:03.289Z,71.20
2022-09-24T22:58:22.816Z,71.10
2022-09-24T23:03:30.899Z,70.90
2022-09-24T23:08:38.819Z,70.80
2022-09-24T23:13:45.105Z,70.80
2022-09-24T23:18:52.001Z,70.60
2022-09-24T23:24:00.543Z,70.20
2022-09-24T23:29:04.574Z,70.20
2022-09-24T23:34:08.406Z,70.00
2022-09-24T23:39:15.608Z,69.80
2022-09-24T23:44:19.736Z,69.80
2022-09-24T23:49:23.768Z,69.80
2022-09-24T23:54:28.620Z,70.00
2022-09-24T23:59:33.271Z,69.80
